createdAt,value
2022-12-14T00:01:19.985Z,-3.27
2022-12-14T00:04:51.754Z,-3.29
2022-12-14T00:07:21.977Z,-3.42
2022-12-14T00:09:52.116Z,-3.40
2022-12-14T00:12:22.226Z,-3.41
2022-12-14T00:14:52.581Z,-3.44
2022-12-14T00:17:23.835Z,-3.48
2022-12-14T00:19:54.122Z,-3.50
2022-12-14T00:22:24.355Z,-3.48
2022-12-14T00:24:55.145Z,-3.52
2022-12-14T00:27:25.377Z,-3.51
2022-12-14T00:29:56.110Z,-3.51
2022-12-14T00:32:26.588Z,-3.54
2022-12-14T00:34:56.725Z,-3.54
2022-12-14T00:37:27.078Z,-3.54
2022-12-14T00:39:57.360Z,-3.56
2022-12-14T00:42:27.717Z,-3.57
2022-12-14T00:44:58.331Z,-3.59
2022-12-14T00:47:28.558Z,-3.65
2022-12-14T00:49:58.738Z,-3.70
2022-12-14T00:52:28.979Z,-3.67
2022-12-14T00:54:59.145Z,-3.65
2022-12-14T00:57:30.900Z,-3.65
2022-12-14T01:00:01.057Z,-3.68
2022-12-14T01:02:31.545Z,-3.72
2022-12-14T01:05:01.831Z,-3.75
2022-12-14T01:07:31.987Z,-3.80
2022-12-14T01:10:02.194Z,-3.84
2022-12-14T01:12:33.450Z,-3.85
2022-12-14T01:15:04.037Z,-3.87
2022-12-14T01:17:34.118Z,-3.91
2022-12-14T01:20:04.753Z,-3.97
2022-12-14T01:22:34.936Z,-3.98
2022-12-14T01:25:05.919Z,-4.00
2022-12-14T01:27:36.457Z,-4.03
2022-12-14T01:30:07.138Z,-4.08
2022-12-14T01:32:37.346Z,-4.11
2022-12-14T01:35:07.824Z,-4.10
2022-12-14T01:37:38.050Z,-4.13
2022-12-14T01:40:08.864Z,-4.08
2022-12-14T01:42:39.113Z,-4.09
2022-12-14T01:45:20.125Z,-4.11
2022-12-14T01:47:57.727Z,-4.15
2022-12-14T01:50:37.375Z,-4.14
2022-12-14T01:53:13.388Z,-4.16
2022-12-14T01:55:50.707Z,-4.20
2022-12-14T01:58:23.967Z,-4.29
2022-12-14T02:00:56.857Z,-4.24
2022-12-14T02:03:35.680Z,-4.25
2022-12-14T02:06:12.339Z,-4.27
2022-12-14T02:08:44.688Z,-4.29
2022-12-14T02:11:20.546Z,-4.27
2022-12-14T02:13:50.769Z,-4.37
2022-12-14T02:16:21.237Z,-4.33
2022-12-14T02:18:51.545Z,-4.36
2022-12-14T02:21:45.018Z,-4.34
2022-12-14T02:24:29.964Z,-4.35
2022-12-14T02:27:09.348Z,-4.35
2022-12-14T02:30:01.145Z,-4.37
2022-12-14T02:32:40.510Z,-4.39
2022-12-14T02:35:29.040Z,-4.43
2022-12-14T02:38:37.675Z,-4.45
2022-12-14T02:41:13.753Z,-4.47
2022-12-14T02:44:18.111Z,-4.48
2022-12-14T02:47:19.889Z,-4.54
2022-12-14T02:50:07.191Z,-4.52
2022-12-14T02:52:46.523Z,-4.57
2022-12-14T02:55:31.984Z,-4.57
2022-12-14T02:58:06.597Z,-4.60
2022-12-14T03:00:38.488Z,-4.61
2022-12-14T03:03:09.105Z,-4.61
2022-12-14T03:05:39.398Z,-4.69
2022-12-14T03:08:14.487Z,-4.72
2022-12-14T03:10:51.235Z,-4.62
2022-12-14T03:13:34.194Z,-4.65
2022-12-14T03:16:04.491Z,-4.64
2022-12-14T03:18:47.510Z,-4.69
2022-12-14T03:21:25.937Z,-4.70
2022-12-14T03:23:58.113Z,-4.74
2022-12-14T03:26:34.931Z,-4.77
2022-12-14T03:29:20.742Z,-4.78
2022-12-14T03:32:15.597Z,-4.86
2022-12-14T03:34:58.054Z,-4.82
2022-12-14T03:37:34.145Z,-4.79
2022-12-14T03:40:08.671Z,-4.80
2022-12-14T03:43:03.115Z,-4.84
2022-12-14T03:45:47.848Z,-4.89
2022-12-14T03:48:42.702Z,-4.91
2022-12-14T03:51:51.623Z,-4.93
2022-12-14T03:54:58.991Z,-4.99
2022-12-14T03:57:34.931Z,-5.03
2022-12-14T04:00:12.524Z,-5.09
2022-12-14T04:03:15.070Z,-5.08
2022-12-14T04:05:51.607Z,-5.22
2022-12-14T04:08:24.808Z,-5.10
2022-12-14T04:11:17.315Z,-5.13
2022-12-14T04:14:16.278Z,-5.13
2022-12-14T04:17:08.813Z,-5.19
2022-12-14T04:19:46.292Z,-5.19
2022-12-14T04:22:24.252Z,-5.18
2022-12-14T04:25:17.453Z,-5.23
2022-12-14T04:27:53.345Z,-5.21
2022-12-14T04:30:24.044Z,-5.25
2022-12-14T04:32:56.357Z,-5.25
2022-12-14T04:35:39.634Z,-5.27
2022-12-14T04:38:16.426Z,-5.28
2022-12-14T04:40:52.662Z,-5.32
2022-12-14T04:43:30.309Z,-5.32
2022-12-14T04:46:11.819Z,-5.29
2022-12-14T04:49:10.587Z,-5.28
2022-12-14T04:52:06.694Z,-5.33
2022-12-14T04:54:52.955Z,-5.30
2022-12-14T04:57:37.903Z,-5.32
2022-12-14T05:00:09.409Z,-5.36
2022-12-14T05:03:07.221Z,-5.34
2022-12-14T05:06:05.174Z,-5.36
2022-12-14T05:08:38.428Z,-5.39
2022-12-14T05:11:53.183Z,-5.46
2022-12-14T05:14:37.560Z,-5.43
2022-12-14T05:17:09.600Z,-5.46
2022-12-14T05:19:48.984Z,-5.48
2022-12-14T05:22:19.400Z,-5.49
2022-12-14T05:24:49.730Z,-5.48
2022-12-14T05:27:20.111Z,-5.50
2022-12-14T05:29:50.353Z,-5.46
2022-12-14T05:32:20.671Z,-5.51
2022-12-14T05:34:50.929Z,-5.51
2022-12-14T05:37:21.191Z,-5.49
2022-12-14T05:39:51.380Z,-5.49
2022-12-14T05:42:21.876Z,-5.47
2022-12-14T05:44:52.119Z,-5.48
2022-12-14T05:47:22.707Z,-5.61
2022-12-14T05:49:52.934Z,-5.52
2022-12-14T05:52:26.302Z,-5.54
2022-12-14T05:55:02.329Z,-5.62
2022-12-14T05:57:34.217Z,-5.62
2022-12-14T06:00:05.354Z,-5.60
2022-12-14T06:02:35.605Z,-5.62
2022-12-14T06:05:06.007Z,-5.65
2022-12-14T06:07:36.224Z,-5.67
2022-12-14T06:10:06.796Z,-5.67
2022-12-14T06:12:36.956Z,-5.70
2022-12-14T06:15:07.706Z,-5.70
2022-12-14T06:17:43.334Z,-5.68
2022-12-14T06:20:14.683Z,-5.75
2022-12-14T06:22:47.746Z,-5.80
2022-12-14T06:25:18.234Z,-5.82
2022-12-14T06:27:52.621Z,-5.83
2022-12-14T06:30:22.859Z,-5.82
2022-12-14T06:32:52.927Z,-5.85
2022-12-14T06:35:23.075Z,-5.85
2022-12-14T06:37:53.292Z,-5.88
2022-12-14T06:40:23.779Z,-5.85
2022-12-14T06:42:53.900Z,-5.87
2022-12-14T06:45:24.111Z,-5.83
2022-12-14T06:47:54.319Z,-5.83
2022-12-14T06:50:25.543Z,-5.85
2022-12-14T06:52:58.436Z,-5.84
2022-12-14T06:55:29.550Z,-5.81
2022-12-14T06:57:59.779Z,-5.80
2022-12-14T07:00:30.070Z,-5.78
2022-12-14T07:03:00.705Z,-5.78
2022-12-14T07:05:31.116Z,-5.81
2022-12-14T07:08:01.417Z,-5.76
2022-12-14T07:10:31.678Z,-5.75
2022-12-14T07:13:01.980Z,-5.75
2022-12-14T07:15:32.236Z,-5.75
2022-12-14T07:18:02.389Z,-5.70
2022-12-14T07:20:33.294Z,-5.70
2022-12-14T07:23:03.509Z,-5.71
2022-12-14T07:25:33.658Z,-5.71
2022-12-14T07:28:03.908Z,-5.68
2022-12-14T07:30:34.067Z,-5.65
2022-12-14T07:33:04.283Z,-5.62
2022-12-14T07:35:34.506Z,-5.67
2022-12-14T07:38:04.679Z,-5.62
2022-12-14T07:40:34.927Z,-5.63
2022-12-14T07:43:05.067Z,-5.67
2022-12-14T07:45:35.407Z,-5.72
2022-12-14T07:48:07.322Z,-5.57
2022-12-14T07:50:37.444Z,-5.63
2022-12-14T07:53:07.571Z,-5.60
2022-12-14T07:55:37.689Z,-5.63
2022-12-14T07:58:07.856Z,-5.61
2022-12-14T08:00:38.081Z,-5.55
2022-12-14T08:03:08.329Z,-5.52
2022-12-14T08:05:40.175Z,-5.48
2022-12-14T08:08:10.338Z,-5.60
2022-12-14T08:10:40.731Z,-5.49
2022-12-14T08:13:11.184Z,-5.45
2022-12-14T08:15:41.493Z,-5.45
2022-12-14T08:18:11.727Z,-5.47
2022-12-14T08:20:42.074Z,-5.42
2022-12-14T08:23:12.199Z,-5.43
2022-12-14T08:25:42.352Z,-5.47
2022-12-14T08:28:12.605Z,-5.47
2022-12-14T08:30:42.889Z,-5.42
2022-12-14T08:33:13.059Z,-5.38
2022-12-14T08:35:43.305Z,-5.39
2022-12-14T08:38:13.803Z,-5.30
2022-12-14T08:40:44.271Z,-5.30
2022-12-14T08:43:14.403Z,-5.26
2022-12-14T08:45:44.669Z,-5.23
2022-12-14T08:48:14.851Z,-5.16
2022-12-14T08:50:45.032Z,-5.14
2022-12-14T08:53:21.237Z,-5.02
2022-12-14T08:55:55.413Z,-4.99
2022-12-14T08:58:26.502Z,-4.90
2022-12-14T09:01:04.749Z,-4.86
2022-12-14T09:03:35.436Z,-4.76
2022-12-14T09:06:09.068Z,-4.70
2022-12-14T09:08:39.312Z,-4.69
2022-12-14T09:11:15.018Z,-4.59
2022-12-14T09:13:45.762Z,-4.65
2022-12-14T09:16:19.706Z,-4.51
2022-12-14T09:18:50.709Z,-4.48
2022-12-14T09:21:22.415Z,-4.47
2022-12-14T09:23:57.310Z,-4.61
2022-12-14T09:26:30.048Z,-4.83
2022-12-14T09:29:00.399Z,-4.76
2022-12-14T09:31:30.748Z,-4.80
2022-12-14T09:34:00.893Z,-4.96
2022-12-14T09:36:31.158Z,-4.93
2022-12-14T09:39:01.777Z,-4.95
2022-12-14T09:41:35.017Z,-4.98
2022-12-14T09:44:25.100Z,-5.04
2022-12-14T09:47:10.976Z,-5.16
2022-12-14T09:49:52.871Z,-5.28
2022-12-14T09:52:51.292Z,-5.42
2022-12-14T09:55:35.276Z,-5.49
2022-12-14T09:58:08.692Z,-5.48
2022-12-14T10:00:49.619Z,-5.46
2022-12-14T10:03:48.165Z,-5.46
2022-12-14T10:06:49.554Z,-5.46
2022-12-14T10:09:33.065Z,-5.42
2022-12-14T10:12:26.371Z,-5.32
2022-12-14T10:15:07.721Z,-5.23
2022-12-14T10:17:52.956Z,-5.10
2022-12-14T10:21:04.545Z,-4.92
2022-12-14T10:23:35.811Z,-4.86
2022-12-14T10:26:14.046Z,-4.77
2022-12-14T10:29:11.894Z,-4.64
2022-12-14T10:31:56.125Z,-4.47
2022-12-14T10:34:31.247Z,-4.40
2022-12-14T10:37:35.054Z,-4.33
2022-12-14T10:40:18.566Z,-4.31
2022-12-14T10:43:14.112Z,-4.27
2022-12-14T10:46:13.728Z,-4.24
2022-12-14T10:48:49.676Z,-4.22
2022-12-14T10:51:38.887Z,-4.15
2022-12-14T10:54:28.641Z,-4.05
2022-12-14T10:56:59.021Z,-4.04
2022-12-14T10:59:39.848Z,-4.00
2022-12-14T11:02:22.618Z,-3.80
2022-12-14T11:04:58.057Z,-3.75
2022-12-14T11:07:34.290Z,-3.71
2022-12-14T11:10:19.512Z,-3.68
2022-12-14T11:13:01.782Z,-3.76
2022-12-14T11:15:47.942Z,-3.69
2022-12-14T11:18:18.235Z,-3.69
2022-12-14T11:21:05.303Z,-3.73
2022-12-14T11:23:39.533Z,-3.69
2022-12-14T11:26:33.398Z,-3.74
2022-12-14T11:29:06.620Z,-3.74
2022-12-14T11:31:45.264Z,-3.69
2022-12-14T11:34:33.403Z,-3.67
2022-12-14T11:37:23.511Z,-3.75
2022-12-14T11:39:57.111Z,-3.79
2022-12-14T11:42:28.684Z,-3.83
2022-12-14T11:45:26.425Z,-3.79
2022-12-14T11:48:19.044Z,-3.71
2022-12-14T11:50:50.736Z,-3.78
2022-12-14T11:53:23.064Z,-3.72
2022-12-14T11:55:58.631Z,-3.75
2022-12-14T11:58:34.723Z,-3.80
2022-12-14T12:01:23.115Z,-3.74
2022-12-14T12:03:57.370Z,-3.54
2022-12-14T12:06:31.582Z,-3.26
2022-12-14T12:09:04.069Z,-2.76
2022-12-14T12:11:36.247Z,-2.43
2022-12-14T12:17:43.140Z,-1.83
2022-12-14T12:20:29.999Z,-1.22
2022-12-14T12:23:30.154Z,-1.28
2022-12-14T12:26:11.296Z,-1.58
2022-12-14T12:28:47.227Z,-1.46
2022-12-14T12:31:25.924Z,-1.11
2022-12-14T12:34:03.071Z,-0.71
2022-12-14T12:36:33.393Z,-0.12
2022-12-14T12:39:16.141Z,0.49
2022-12-14T12:42:09.995Z,0.83
2022-12-14T12:44:49.784Z,0.59
2022-12-14T12:47:34.737Z,-0.14
2022-12-14T12:50:27.836Z,-0.69
2022-12-14T12:53:12.189Z,-1.21
2022-12-14T12:55:47.467Z,-1.47
2022-12-14T12:58:33.061Z,-1.80
2022-12-14T13:01:14.311Z,-2.16
2022-12-14T13:03:48.098Z,-2.48
2022-12-14T13:06:24.644Z,-2.62
2022-12-14T13:08:59.486Z,-2.79
2022-12-14T13:11:36.135Z,-3.00
2022-12-14T13:14:49.526Z,-3.02
2022-12-14T13:17:29.519Z,-3.09
2022-12-14T13:20:02.581Z,-3.14
2022-12-14T13:22:37.111Z,-3.21
2022-12-14T13:25:25.779Z,-3.33
2022-12-14T13:28:16.227Z,-3.43
2022-12-14T13:30:49.249Z,-3.53
2022-12-14T13:33:25.334Z,-3.61
2022-12-14T13:36:32.417Z,-3.60
2022-12-14T13:39:24.258Z,-3.62
2022-12-14T13:42:25.347Z,-3.63
2022-12-14T13:45:01.652Z,-3.67
2022-12-14T13:47:44.179Z,-3.69
2022-12-14T13:50:36.620Z,-3.76
2022-12-14T13:53:18.202Z,-3.90
2022-12-14T13:55:54.798Z,-3.99
2022-12-14T13:58:46.357Z,-4.05
2022-12-14T14:01:50.288Z,-4.11
2022-12-14T14:04:26.295Z,-4.17
2022-12-14T14:07:25.199Z,-4.25
2022-12-14T14:09:55.457Z,-4.21
2022-12-14T14:12:43.429Z,-4.28
2022-12-14T14:15:34.893Z,-4.35
2022-12-14T14:18:14.616Z,-4.34
2022-12-14T14:20:58.871Z,-4.34
2022-12-14T14:23:33.042Z,-4.31
2022-12-14T14:26:18.451Z,-4.35
2022-12-14T14:29:05.169Z,-4.40
2022-12-14T14:32:01.149Z,-4.53
2022-12-14T14:34:46.541Z,-4.61
2022-12-14T14:37:20.118Z,-4.62
2022-12-14T14:40:22.109Z,-4.77
2022-12-14T14:43:16.911Z,-4.66
2022-12-14T14:45:53.797Z,-4.69
2022-12-14T14:48:35.406Z,-4.72
2022-12-14T14:51:11.703Z,-4.78
2022-12-14T14:53:42.381Z,-4.89
2022-12-14T14:56:30.938Z,-4.86
2022-12-14T14:59:19.342Z,-4.88
2022-12-14T15:01:53.695Z,-4.93
2022-12-14T15:04:38.259Z,-4.99
2022-12-14T15:07:14.014Z,-5.10
2022-12-14T15:09:52.434Z,-5.00
2022-12-14T15:12:25.935Z,-5.04
2022-12-14T15:15:01.731Z,-5.10
2022-12-14T15:17:32.039Z,-5.12
2022-12-14T15:20:03.572Z,-5.21
2022-12-14T15:22:42.722Z,-5.12
2022-12-14T15:25:33.469Z,-5.08
2022-12-14T15:28:21.602Z,-5.12
2022-12-14T15:30:52.950Z,-5.11
2022-12-14T15:33:36.433Z,-5.21
2022-12-14T15:36:16.506Z,-5.21
2022-12-14T15:38:55.722Z,-5.18
2022-12-14T15:41:33.960Z,-5.17
2022-12-14T15:44:23.474Z,-5.20
2022-12-14T15:46:55.614Z,-5.23
2022-12-14T15:49:26.070Z,-5.23
2022-12-14T15:51:58.794Z,-5.27
2022-12-14T15:54:29.153Z,-5.25
2022-12-14T15:57:00.382Z,-5.34
2022-12-14T15:59:37.615Z,-5.34
2022-12-14T16:02:18.660Z,-5.39
2022-12-14T16:04:50.159Z,-5.44
2022-12-14T16:07:29.330Z,-5.48
2022-12-14T16:10:04.999Z,-5.51
2022-12-14T16:12:46.535Z,-5.52
2022-12-14T16:15:20.848Z,-5.52
2022-12-14T16:17:57.452Z,-5.52
2022-12-14T16:20:35.774Z,-5.51
2022-12-14T16:23:14.216Z,-5.54
2022-12-14T16:26:01.276Z,-5.63
2022-12-14T16:28:32.597Z,-5.54
2022-12-14T16:31:08.278Z,-5.64
2022-12-14T16:33:40.869Z,-5.64
2022-12-14T16:36:24.522Z,-5.70
2022-12-14T16:39:05.184Z,-5.79
2022-12-14T16:41:41.500Z,-5.81
2022-12-14T16:44:36.138Z,-5.84
2022-12-14T16:47:45.694Z,-5.82
2022-12-14T16:50:56.666Z,-5.81
2022-12-14T16:53:22.650Z,-5.88
2022-12-14T16:56:24.400Z,-5.82
2022-12-14T16:59:04.768Z,-5.87
2022-12-14T17:01:43.437Z,-5.95
2022-12-14T17:04:16.045Z,-6.01
2022-12-14T17:06:54.893Z,-6.00
2022-12-14T17:09:30.747Z,-6.08
2022-12-14T17:12:07.207Z,-5.97
2022-12-14T17:14:37.295Z,-6.02
2022-12-14T17:17:08.455Z,-6.00
2022-12-14T17:19:39.534Z,-5.94
2022-12-14T17:22:18.745Z,-5.97
2022-12-14T17:24:49.051Z,-5.96
2022-12-14T17:27:23.721Z,-5.90
2022-12-14T17:29:58.032Z,-5.91
2022-12-14T17:32:32.511Z,-5.91
2022-12-14T17:35:03.914Z,-5.93
2022-12-14T17:37:36.370Z,-5.92
2022-12-14T17:40:07.809Z,-5.92
2022-12-14T17:42:39.865Z,-5.90
2022-12-14T17:45:20.755Z,-5.96
2022-12-14T17:47:51.141Z,-5.89
2022-12-14T17:50:22.409Z,-5.95
2022-12-14T17:52:53.434Z,-5.98
2022-12-14T17:55:28.503Z,-5.95
2022-12-14T17:58:00.089Z,-6.06
2022-12-14T18:00:50.001Z,-6.00
2022-12-14T18:03:21.357Z,-6.04
2022-12-14T18:05:53.030Z,-6.05
2022-12-14T18:08:24.616Z,-6.16
2022-12-14T18:10:59.702Z,-6.16
2022-12-14T18:13:33.532Z,-6.14
2022-12-14T18:16:04.240Z,-6.11
2022-12-14T18:18:34.541Z,-6.16
2022-12-14T18:21:05.633Z,-6.17
2022-12-14T18:23:36.234Z,-6.13
2022-12-14T18:26:07.943Z,-6.15
2022-12-14T18:28:42.499Z,-6.19
2022-12-14T18:31:24.780Z,-6.16
2022-12-14T18:33:55.807Z,-6.24
2022-12-14T18:36:26.183Z,-6.23
2022-12-14T18:38:56.798Z,-6.25
2022-12-14T18:41:27.638Z,-6.25
2022-12-14T18:43:59.562Z,-6.26
2022-12-14T18:46:29.977Z,-6.27
2022-12-14T18:49:00.152Z,-6.27
2022-12-14T18:51:30.433Z,-6.25
2022-12-14T18:54:00.719Z,-6.28
2022-12-14T18:56:31.132Z,-6.30
2022-12-14T18:59:01.295Z,-6.24
2022-12-14T19:01:31.588Z,-6.32
2022-12-14T19:04:01.970Z,-6.27
2022-12-14T19:06:43.975Z,-6.27
2022-12-14T19:09:15.573Z,-6.31
2022-12-14T19:11:45.942Z,-6.27
2022-12-14T19:14:18.220Z,-6.27
2022-12-14T19:16:48.449Z,-6.27
2022-12-14T19:19:22.500Z,-6.23
2022-12-14T19:21:53.915Z,-6.29
2022-12-14T19:24:24.166Z,-6.32
2022-12-14T19:26:54.424Z,-6.37
2022-12-14T19:29:24.562Z,-6.30
2022-12-14T19:31:57.014Z,-6.27
2022-12-14T19:34:29.279Z,-6.34
2022-12-14T19:36:59.485Z,-6.30
2022-12-14T19:39:29.677Z,-6.46
2022-12-14T19:41:59.803Z,-6.34
2022-12-14T19:44:34.525Z,-6.38
2022-12-14T19:47:04.782Z,-6.37
2022-12-14T19:49:35.052Z,-6.36
2022-12-14T19:52:06.442Z,-6.35
2022-12-14T19:54:40.003Z,-6.39
2022-12-14T19:57:11.182Z,-6.33
2022-12-14T19:59:42.255Z,-6.37
2022-12-14T20:02:14.173Z,-6.26
2022-12-14T20:04:44.616Z,-6.30
2022-12-14T20:07:15.465Z,-6.29
2022-12-14T20:09:45.736Z,-6.37
2022-12-14T20:12:15.976Z,-6.43
2022-12-14T20:14:51.316Z,-6.33
2022-12-14T20:17:21.563Z,-6.33
2022-12-14T20:19:52.894Z,-6.41
2022-12-14T20:22:23.006Z,-6.36
2022-12-14T20:24:53.154Z,-6.36
2022-12-14T20:27:23.431Z,-6.41
2022-12-14T20:29:53.619Z,-6.50
2022-12-14T20:32:23.828Z,-6.40
2022-12-14T20:34:54.002Z,-6.47
2022-12-14T20:37:25.142Z,-6.45
2022-12-14T20:39:55.680Z,-6.47
2022-12-14T20:42:25.843Z,-6.48
2022-12-14T20:44:56.045Z,-6.40
2022-12-14T20:47:26.123Z,-6.47
2022-12-14T20:49:56.312Z,-6.46
2022-12-14T20:52:26.530Z,-6.43
2022-12-14T20:54:56.867Z,-6.38
2022-12-14T20:57:27.135Z,-6.42
2022-12-14T20:59:59.409Z,-6.43
2022-12-14T21:02:29.919Z,-6.43
2022-12-14T21:05:00.211Z,-6.34
2022-12-14T21:07:31.929Z,-6.38
2022-12-14T21:10:02.000Z,-6.40
2022-12-14T21:12:32.497Z,-6.37
2022-12-14T21:15:03.549Z,-6.38
2022-12-14T21:17:34.027Z,-6.32
2022-12-14T21:20:05.284Z,-6.35
2022-12-14T21:22:35.623Z,-6.40
2022-12-14T21:25:07.108Z,-6.38
2022-12-14T21:27:39.419Z,-6.35
2022-12-14T21:30:12.233Z,-6.34
2022-12-14T21:32:45.091Z,-6.38
2022-12-14T21:35:17.798Z,-6.34
2022-12-14T21:37:48.137Z,-6.38
2022-12-14T21:40:38.335Z,-6.38
2022-12-14T21:43:08.526Z,-6.38
2022-12-14T21:45:38.720Z,-6.36
2022-12-14T21:48:08.918Z,-6.30
2022-12-14T21:50:42.562Z,-6.39
2022-12-14T21:53:12.761Z,-6.30
2022-12-14T21:55:52.239Z,-6.41
2022-12-14T21:58:24.560Z,-6.34
2022-12-14T22:00:54.742Z,-6.30
2022-12-14T22:03:27.470Z,-6.34
2022-12-14T22:05:58.250Z,-6.35
2022-12-14T22:08:30.988Z,-6.43
2022-12-14T22:11:05.623Z,-6.34
2022-12-14T22:13:35.763Z,-6.36
2022-12-14T22:16:06.670Z,-6.34
2022-12-14T22:18:36.927Z,-6.32
2022-12-14T22:21:07.330Z,-6.32
2022-12-14T22:23:43.157Z,-6.31
2022-12-14T22:26:14.457Z,-6.34
2022-12-14T22:28:44.570Z,-6.33
2022-12-14T22:31:14.672Z,-6.34
2022-12-14T22:33:45.977Z,-6.35
2022-12-14T22:36:20.212Z,-6.32
2022-12-14T22:38:51.069Z,-6.36
2022-12-14T22:41:21.252Z,-6.36
2022-12-14T22:43:56.709Z,-6.38
2022-12-14T22:46:28.459Z,-6.37
2022-12-14T22:48:59.302Z,-6.42
2022-12-14T22:51:29.476Z,-6.37
2022-12-14T22:53:59.872Z,-6.38
2022-12-14T22:56:38.742Z,-6.40
2022-12-14T22:59:27.728Z,-6.37
2022-12-14T23:01:59.104Z,-6.41
2022-12-14T23:04:30.299Z,-6.54
2022-12-14T23:07:00.577Z,-6.50
2022-12-14T23:09:49.170Z,-6.51
2022-12-14T23:12:37.967Z,-6.51
2022-12-14T23:15:26.999Z,-6.53
2022-12-14T23:18:24.276Z,-6.69
2022-12-14T23:21:13.377Z,-6.65
2022-12-14T23:24:03.927Z,-6.56
2022-12-14T23:26:52.382Z,-6.63
2022-12-14T23:29:41.035Z,-6.58
2022-12-14T23:32:29.757Z,-6.59
2022-12-14T23:35:18.402Z,-6.63
2022-12-14T23:38:06.955Z,-6.62
2022-12-14T23:40:55.720Z,-6.62
2022-12-14T23:43:44.689Z,-6.53
2022-12-14T23:46:33.344Z,-6.60
2022-12-14T23:49:22.548Z,-6.68
2022-12-14T23:52:10.990Z,-6.59
2022-12-14T23:54:59.650Z,-6.66
2022-12-14T23:57:48.271Z,-6.66
